Time;durP1;ratioP1;P1;durP2;ratioP2;P2;SDS_P1;SDS_P2;PMS_P1;PMS_P2;Temp;Humidity;BMP_temperature;BMP_pressure;BME280_temperature;BME280_humidity;BME280_pressure;Samples;Min_cycle;Max_cycle;Signal;HPM_P1;HPM_P2
2022/05/02 12:03:26;;;;;;;;;;;;;;;29.33;24.94;100716.63;2099379;28;1582;-55
2022/05/02 12:04:29;;;;;;;;;;;;;;;29.39;24.86;100710.75;2083606;28;3628;-55
2022/05/02 12:05:36;;;;;;;;;;;;;;;29.37;24.71;100707.28;2093466;28;1702;-56
2022/05/02 12:06:40;;;;;;;;;;;;;;;29.26;25.30;100704.41;2085948;28;1479;-56
2022/05/02 12:07:43;;;;;;;;;;;;;;;29.41;25.00;100714.25;2086166;28;1631;-56
2022/05/02 12:08:46;;;;;;;;;;;;;;;29.42;24.55;100710.53;2095657;28;1329;-56
2022/05/02 12:09:47;;;;;;;;;;;;;;;29.51;24.70;100699.91;2095822;28;1346;-56
2022/05/02 12:10:47;;;;;;;;;;;;;;;29.47;25.00;100707.47;2096884;28;1615;-56
2022/05/02 12:11:54;;;;;;;;;;;;;;;29.37;24.91;100704.53;2098063;28;816;-57
2022/05/02 12:12:56;;;;;;;;;;;;;;;29.35;25.22;100708.31;2091193;28;1710;-57
2022/05/02 12:13:56;;;;;;;;;;;;;;;29.35;25.43;100701.03;2084505;28;1658;-57
2022/05/02 12:15:00;;;;;;;;;;;;;;;29.55;24.94;100701.41;2083366;28;1609;-57
2022/05/02 12:16:08;;;;;;;;;;;;;;;29.35;25.49;100695.56;2096053;28;1733;-57
2022/05/02 12:17:11;;;;;;;;;;;;;;;29.33;25.59;100700.25;2097876;28;1757;-55
2022/05/02 12:18:13;;;;;;;;;;;;;;;29.63;25.46;100699.00;2098138;28;759;-55
2022/05/02 12:19:27;;;;;;;;;;;;;;;29.66;24.75;100687.84;2097737;28;1574;-55
2022/05/02 12:20:32;;;;;;;;;;;;;;;29.81;24.67;100690.44;2098272;28;984;-55
2022/05/02 12:21:33;;;;;;;;;;;;;;;29.84;24.79;100684.72;2098143;28;822;-55
2022/05/02 12:22:34;;;;;;;;;;;;;;;29.98;24.71;100684.59;2097561;28;1980;-55
2022/05/02 12:23:35;;;;;;;;;;;;;;;29.97;24.61;100693.75;2086244;28;1580;-56
2022/05/02 12:24:36;;;;;;;;;;;;;;;29.95;24.35;100678.44;2082551;28;1521;-55
2022/05/02 12:25:46;;;;;;;;;;;;;;;29.96;24.77;100682.91;2082502;28;1632;-55
2022/05/02 12:26:51;;;;;;;;;;;;;;;29.92;24.92;100676.84;2095835;28;1347;-55
2022/05/02 12:27:51;;;;;;;;;;;;;;;29.91;24.58;100687.84;2090481;28;1413;-55
2022/05/02 12:28:58;;;;;;;;;;;;;;;29.91;24.88;100675.09;2082387;28;1794;-55
2022/05/02 12:30:00;;;;;;;;;;;;;;;29.91;24.52;100675.09;2092560;28;1731;-55
2022/05/02 12:31:00;;;;;;;;;;;;;;;29.97;24.79;100671.91;2098055;28;763;-55
2022/05/02 12:32:02;;;;;;;;;;;;;;;29.96;24.47;100680.19;2097974;28;893;-55
2022/05/02 12:33:04;;;;;;;;;;;;;;;29.99;24.68;100675.41;2097787;28;1650;-55
2022/05/02 12:34:09;;;;;;;;;;;;;;;29.95;24.91;100682.06;2096221;28;1657;-55
2022/05/02 12:35:11;;;;;;;;;;;;;;;29.97;25.29;100685.56;2093579;28;1575;-56
2022/05/02 12:36:13;;;;;;;;;;;;;;;29.93;25.30;100673.13;2098022;28;798;-55
2022/05/02 12:37:20;;;;;;;;;;;;;;;29.88;25.63;100681.63;2086765;28;1683;-56
2022/05/02 12:38:25;;;;;;;;;;;;;;;29.65;25.40;100677.91;2095366;28;1647;-55
2022/05/02 12:39:26;;;;;;;;;;;;;;;29.71;25.16;100680.19;2098052;28;767;-55
2022/05/02 12:40:27;;;;;;;;;;;;;;;29.87;24.72;100693.56;2094680;28;1683;-55
2022/05/02 12:41:29;;;;;;;;;;;;;;;29.77;24.60;100678.00;2090684;28;1681;-55
2022/05/02 12:42:36;;;;;;;;;;;;;;;29.88;24.29;100680.78;2084541;28;1910;-55
2022/05/02 12:43:44;;;;;;;;;;;;;;;29.73;25.04;100671.91;2091475;28;1615;-55
2022/05/02 12:44:52;;;;;;;;;;;;;;;29.79;24.66;100673.28;2089040;28;1449;-55
2022/05/02 12:45:53;;;;;;;;;;;;;;;29.68;25.33;100674.97;2089742;28;1640;-56
2022/05/02 12:46:55;;;;;;;;;;;;;;;29.81;25.16;100683.09;2087955;28;1744;-55
2022/05/02 12:47:58;;;;;;;;;;;;;;;29.79;24.58;100673.28;2085204;28;1636;-55
2022/05/02 12:49:03;;;;;;;;;;;;;;;29.82;24.84;100663.00;2089629;28;806;-56
2022/05/02 12:50:05;;;;;;;;;;;;;;;29.75;24.95;100664.44;2089576;28;1477;-55
2022/05/02 12:51:07;;;;;;;;;;;;;;;29.72;24.81;100664.69;2089647;28;822;-55
2022/05/02 12:52:07;;;;;;;;;;;;;;;29.79;24.57;100665.09;2089553;28;956;-55
2022/05/02 12:53:17;;;;;;;;;;;;;;;29.79;24.49;100657.75;2092789;28;1627;-55
2022/05/02 12:54:17;;;;;;;;;;;;;;;29.67;24.53;100662.31;2090643;28;1647;-55
2022/05/02 12:55:19;;;;;;;;;;;;;;;29.71;25.05;100665.69;2087808;28;1734;-55
2022/05/02 12:56:19;;;;;;;;;;;;;;;29.78;24.14;100652.44;2092111;28;1599;-55
2022/05/02 13:00:32;;;;;;;;;;;;;;;29.96;24.29;100677.47;2097768;28;617;-55
2022/05/02 13:01:45;;;;;;;;;;;;;;;29.87;23.74;100660.78;2097814;28;869;-55
2022/05/02 13:02:51;;;;;;;;;;;;;;;29.85;24.05;100660.03;2096814;28;1945;-55
2022/05/02 13:04:00;;;;;;;;;;;;;;;29.87;24.28;100662.66;2080719;28;1589;-55
2022/05/02 13:05:04;;;;;;;;;;;;;;;29.89;24.10;100655.22;2094657;28;1603;-55
2022/05/02 13:06:08;;;;;;;;;;;;;;;29.46;24.66;100639.34;2088756;28;1567;-57
2022/05/02 13:07:08;;;;;;;;;;;;;;;29.35;24.71;100660.09;2089418;28;1106;-57
2022/05/02 13:08:10;;;;;;;;;;;;;;;29.55;25.02;100649.56;2086111;28;1572;-57
2022/05/02 13:09:12;;;;;;;;;;;;;;;29.78;24.40;100646.97;2091769;28;1615;-57
2022/05/02 13:10:18;;;;;;;;;;;;;;;29.87;24.38;100644.41;2085409;28;1984;-57
2022/05/02 13:11:25;;;;;;;;;;;;;;;29.90;24.37;100643.31;2088338;28;1526;-56
2022/05/02 13:12:26;;;;;;;;;;;;;;;29.93;24.26;100639.47;2092248;28;1696;-56
2022/05/02 13:13:35;;;;;;;;;;;;;;;29.89;24.46;100655.22;2087545;28;1552;-56
2022/05/02 13:14:36;;;;;;;;;;;;;;;29.95;24.40;100646.56;2083707;28;965;-57
2022/05/02 13:15:36;;;;;;;;;;;;;;;29.55;24.91;100634.09;2081548;28;4517;-57
2022/05/02 13:16:44;;;;;;;;;;;;;;;29.46;24.61;100637.50;2077999;28;4428;-57
2022/05/02 13:17:45;;;;;;;;;;;;;;;29.76;24.86;100647.06;2076959;28;2434;-56
2022/05/02 13:18:47;;;;;;;;;;;;;;;29.60;24.29;100652.84;2083217;28;1060;-57
2022/05/02 13:19:48;;;;;;;;;;;;;;;29.72;24.61;100657.38;2083303;28;858;-57
2022/05/02 13:21:02;;;;;;;;;;;;;;;29.82;24.97;100656.69;2079007;28;1585;-57
2022/05/02 13:22:02;;;;;;;;;;;;;;;29.93;23.86;100651.28;2078880;28;2581;-57
2022/05/02 13:23:12;;;;;;;;;;;;;;;29.82;24.40;100653.94;2083092;28;1902;-57
2022/05/02 13:24:13;;;;;;;;;;;;;;;29.97;24.04;100643.69;2083340;28;866;-57
2022/05/02 13:25:13;;;;;;;;;;;;;;;30.01;24.20;100646.13;2082455;28;861;-57
2022/05/02 13:26:26;;;;;;;;;;;;;;;30.02;23.95;100653.34;2079189;28;1438;-57
2022/05/02 13:27:33;;;;;;;;;;;;;;;29.88;24.74;100650.75;2079214;28;1672;-57
2022/05/02 13:28:43;;;;;;;;;;;;;;;30.05;24.76;100662.25;2083027;28;1228;-56
2022/05/02 13:29:43;;;;;;;;;;;;;;;30.14;24.52;100656.09;2082731;28;1538;-56
2022/05/02 13:30:49;;;;;;;;;;;;;;;30.07;24.22;100677.53;2078515;28;1620;-57
2022/05/02 13:32:15;;;;;;;;;;;;;;;29.81;24.01;100652.22;2083788;28;1048;-57
2022/05/02 13:33:19;;;;;;;;;;;;;;;29.87;24.64;100658.06;2082196;28;1522;-57
2022/05/02 13:34:19;;;;;;;;;;;;;;;30.03;23.92;100655.03;2082415;28;1384;-56
2022/05/02 13:35:26;;;;;;;;;;;;;;;29.89;24.36;100657.97;2084363;28;1654;-57
2022/05/02 13:36:30;;;;;;;;;;;;;;;29.94;24.13;100655.75;2077351;28;3901;-57
2022/05/02 13:37:31;;;;;;;;;;;;;;;30.00;24.49;100659.88;2078552;28;3220;-57
2022/05/02 13:38:50;;;;;;;;;;;;;;;29.90;24.44;100654.25;2076786;28;2204;-57
2022/05/02 13:39:51;;;;;;;;;;;;;;;29.99;24.01;100648.09;2077505;28;1543;-57
2022/05/02 13:41:11;;;;;;;;;;;;;;;30.01;24.05;100648.88;2078880;28;1051;-57
2022/05/02 13:42:16;;;;;;;;;;;;;;;29.83;24.38;100650.22;2079033;28;2646;-57
2022/05/02 13:43:34;;;;;;;;;;;;;;;29.93;24.04;100648.53;2075905;28;1923;-57
2022/05/02 13:44:44;;;;;;;;;;;;;;;29.98;23.87;100627.25;2083754;28;1529;-57
2022/05/02 13:46:02;;;;;;;;;;;;;;;30.08;23.49;100649.25;2080158;28;1664;-57
2022/05/02 13:47:08;;;;;;;;;;;;;;;29.97;24.15;100652.78;2085478;28;1518;-57
2022/05/02 13:48:26;;;;;;;;;;;;;;;30.03;23.79;100644.13;2083485;28;1458;-57
2022/05/02 13:49:27;;;;;;;;;;;;;;;29.86;23.94;100648.13;2081722;28;1544;-57
2022/05/02 13:50:28;;;;;;;;;;;;;;;29.97;23.81;100655.50;2079842;28;1560;-57
2022/05/02 13:51:44;;;;;;;;;;;;;;;29.80;24.24;100639.53;2078922;28;1676;-57
2022/05/02 13:52:46;;;;;;;;;;;;;;;29.98;23.69;100646.38;2078619;28;1592;-57
2022/05/02 13:53:51;;;;;;;;;;;;;;;29.91;23.67;100650.53;2076405;28;1686;-57
2022/05/02 13:54:52;;;;;;;;;;;;;;;29.84;23.68;100641.06;2078053;28;2435;-57
2022/05/02 13:55:55;;;;;;;;;;;;;;;29.99;23.64;100642.66;2076112;28;1599;-57
2022/05/02 13:57:15;;;;;;;;;;;;;;;29.97;23.55;100644.59;2082892;28;1448;-57
2022/05/02 13:58:34;;;;;;;;;;;;;;;29.93;23.90;100653.13;2081239;28;1523;-57
2022/05/02 13:59:34;;;;;;;;;;;;;;;29.92;23.58;100645.91;2087388;28;1559;-57
2022/05/02 14:01:57;;;;;;;;;;;;;;;30.00;23.88;100655.31;2084158;28;1113;-57
2022/05/02 14:03:12;;;;;;;;;;;;;;;29.98;23.62;100645.47;2090466;28;1914;-57
2022/05/02 14:04:21;;;;;;;;;;;;;;;30.13;23.36;100643.41;2094871;28;1599;-58
2022/05/02 14:05:32;;;;;;;;;;;;;;;29.76;24.48;100647.06;2093535;28;1484;-57
2022/05/02 14:06:52;;;;;;;;;;;;;;;29.97;23.75;100647.31;2091062;28;1148;-57
2022/05/02 14:07:54;;;;;;;;;;;;;;;29.77;23.77;100647.97;2091169;28;1104;-58
2022/05/02 14:08:56;;;;;;;;;;;;;;;29.98;23.65;100648.22;2091215;28;1136;-57
2022/05/02 14:09:57;;;;;;;;;;;;;;;30.00;23.88;100648.97;2091095;28;1206;-57
2022/05/02 14:11:00;;;;;;;;;;;;;;;30.17;23.98;100640.34;2091084;28;1273;-57
2022/05/02 14:12:00;;;;;;;;;;;;;;;30.11;23.68;100648.13;2091140;28;1191;-57
2022/05/02 14:13:16;;;;;;;;;;;;;;;30.08;23.47;100645.63;2091055;28;1217;-57
2022/05/02 14:14:16;;;;;;;;;;;;;;;30.27;23.30;100639.63;2091063;28;1195;-57
2022/05/02 14:15:19;;;;;;;;;;;;;;;30.33;23.80;100639.13;2091192;28;1136;-57
2022/05/02 14:16:19;;;;;;;;;;;;;;;30.31;23.15;100636.53;2091201;28;1155;-57
2022/05/02 14:17:24;;;;;;;;;;;;;;;30.14;23.82;100635.13;2084211;28;1730;-58
2022/05/02 14:18:25;;;;;;;;;;;;;;;30.14;23.83;100640.59;2087930;28;1397;-58
2022/05/02 14:19:25;;;;;;;;;;;;;;;30.09;23.98;100641.91;2091040;28;1365;-57
2022/05/02 14:20:25;;;;;;;;;;;;;;;29.89;24.73;100636.13;2091465;28;1163;-56
2022/05/02 14:21:26;;;;;;;;;;;;;;;29.93;24.55;100634.91;2093333;28;1515;-56
2022/05/02 14:22:33;;;;;;;;;;;;;;;30.09;24.10;100637.34;2093866;28;3414;-56
2022/05/02 14:23:45;;;;;;;;;;;;;;;30.11;23.96;100632.63;2090942;28;1513;-56
2022/05/02 14:24:46;;;;;;;;;;;;;;;30.14;24.27;100643.31;2087764;28;3491;-56
2022/05/02 14:25:47;;;;;;;;;;;;;;;30.35;23.73;100642.59;2083083;28;1478;-56
2022/05/02 14:26:58;;;;;;;;;;;;;;;30.33;23.60;100639.13;2094238;28;1723;-56
2022/05/02 14:28:00;;;;;;;;;;;;;;;30.40;23.66;100637.66;2092125;28;1516;-56
2022/05/02 14:29:00;;;;;;;;;;;;;;;30.25;23.92;100639.72;2092722;28;1595;-56
2022/05/02 14:30:04;;;;;;;;;;;;;;;30.27;24.01;100640.50;2097172;28;1738;-56
2022/05/02 14:31:04;;;;;;;;;;;;;;;30.27;24.57;100632.28;2093051;28;1630;-56
2022/05/02 14:32:07;;;;;;;;;;;;;;;30.22;24.15;100634.50;2095854;28;1639;-56
2022/05/02 14:33:10;;;;;;;;;;;;;;;30.19;24.21;100636.63;2094775;28;1677;-55
2022/05/02 14:34:11;;;;;;;;;;;;;;;30.22;24.54;100633.66;2095283;28;1584;-55
2022/05/02 14:35:22;;;;;;;;;;;;;;;30.27;24.04;100629.56;2085833;28;1511;-56
2022/05/02 14:36:22;;;;;;;;;;;;;;;30.46;24.22;100628.13;2083230;28;850;-55
2022/05/02 14:37:23;;;;;;;;;;;;;;;30.67;23.87;100622.81;2084364;28;1666;-56
2022/05/02 14:38:25;;;;;;;;;;;;;;;30.71;23.95;100635.25;2093196;28;1708;-56
2022/05/02 14:39:25;;;;;;;;;;;;;;;30.47;24.18;100629.84;2089086;28;1638;-56
2022/05/02 14:40:25;;;;;;;;;;;;;;;30.42;23.65;100630.19;2081217;28;1688;-56
2022/05/02 14:41:25;;;;;;;;;;;;;;;30.16;24.04;100630.41;2080046;28;3791;-56
2022/05/02 14:42:26;;;;;;;;;;;;;;;30.27;24.10;100636.91;2086747;28;1631;-56
2022/05/02 14:43:27;;;;;;;;;;;;;;;30.24;23.64;100635.25;2083953;28;2533;-56
2022/05/02 14:44:27;;;;;;;;;;;;;;;30.27;23.81;100628.69;2085272;28;1541;-56
2022/05/02 14:45:28;;;;;;;;;;;;;;;30.26;23.43;100625.09;2089121;28;1581;-57
2022/05/02 14:46:28;;;;;;;;;;;;;;;30.28;23.92;100634.03;2086054;28;1657;-56
2022/05/02 14:47:28;;;;;;;;;;;;;;;30.22;23.63;100634.50;2091920;28;2438;-56
2022/05/02 14:48:29;;;;;;;;;;;;;;;30.32;23.28;100642.88;2099039;28;779;-57
2022/05/02 14:49:29;;;;;;;;;;;;;;;30.23;23.54;100643.59;2094032;28;1167;-56
2022/05/02 14:50:30;;;;;;;;;;;;;;;30.35;23.53;100637.13;2091322;28;783;-56
2022/05/02 14:51:38;;;;;;;;;;;;;;;30.43;23.84;100639.28;2091352;28;1533;-56
2022/05/02 14:52:38;;;;;;;;;;;;;;;30.42;23.72;100629.34;2092126;28;1164;-56
2022/05/02 14:53:40;;;;;;;;;;;;;;;30.36;23.67;100640.75;2091397;28;811;-56
2022/05/02 14:54:40;;;;;;;;;;;;;;;30.40;23.50;100625.88;2091433;28;823;-56
2022/05/02 14:55:44;;;;;;;;;;;;;;;30.36;23.52;100632.56;2088455;28;1533;-56
2022/05/02 14:56:46;;;;;;;;;;;;;;;30.36;23.65;100638.03;2086644;28;1700;-56
2022/05/02 14:57:47;;;;;;;;;;;;;;;30.30;23.63;100632.06;2083056;28;989;-56
2022/05/02 14:58:48;;;;;;;;;;;;;;;30.24;23.43;100635.25;2083496;28;1646;-56
2022/05/02 14:59:50;;;;;;;;;;;;;;;30.39;23.44;100632.31;2087521;28;1744;-56
2022/05/02 15:00:56;;;;;;;;;;;;;;;30.26;23.29;100632.44;2091276;28;1477;-56
2022/05/02 15:01:58;;;;;;;;;;;;;;;30.27;23.24;100643.22;2081774;28;4961;-56
2022/05/02 15:02:59;;;;;;;;;;;;;;;30.33;23.30;100630.94;2080421;28;1985;-56
2022/05/02 15:04:01;;;;;;;;;;;;;;;30.39;23.23;100629.59;2091334;28;787;-56
2022/05/02 15:05:03;;;;;;;;;;;;;;;30.30;23.48;100637.50;2091343;28;989;-56
2022/05/02 15:06:04;;;;;;;;;;;;;;;30.31;23.66;100630.22;2091253;28;787;-56
2022/05/02 15:07:08;;;;;;;;;;;;;;;30.31;23.44;100636.53;2089858;28;1824;-56
2022/05/02 15:08:18;;;;;;;;;;;;;;;30.35;23.17;100631.66;2086478;28;1533;-56
2022/05/02 15:11:03;;;;;;;;;;;;;;;30.30;23.78;100623.84;2083350;28;1506;-56
2022/05/02 15:12:03;;;;;;;;;;;;;;;30.25;22.98;100617.03;2089778;28;890;-56
2022/05/02 15:13:22;;;;;;;;;;;;;;;30.25;23.56;100620.59;2084534;28;1617;-56
2022/05/02 15:14:25;;;;;;;;;;;;;;;30.29;23.24;100613.91;2090311;28;2586;-56
2022/05/02 15:15:28;;;;;;;;;;;;;;;30.26;23.73;100624.22;2091728;28;790;-56
2022/05/02 15:16:34;;;;;;;;;;;;;;;30.19;23.52;100626.56;2091193;28;961;-56
2022/05/02 15:17:38;;;;;;;;;;;;;;;30.41;23.25;100614.81;2091231;28;877;-56
2022/05/02 15:20:32;;;;;;;;;;;;;;;30.38;23.03;100612.31;2091202;28;668;-56
2022/05/02 15:21:38;;;;;;;;;;;;;;;30.44;23.15;100614.56;2090951;28;985;-56
2022/05/02 15:22:40;;;;;;;;;;;;;;;30.42;23.19;100597.41;2091075;28;1961;-56
2022/05/02 15:23:41;;;;;;;;;;;;;;;30.34;22.59;100612.69;2091284;28;667;-56
2022/05/02 15:24:46;;;;;;;;;;;;;;;30.24;23.65;100607.94;2091238;28;763;-56
2022/05/02 15:25:54;;;;;;;;;;;;;;;30.39;22.87;100605.84;2091089;28;792;-56
2022/05/02 15:26:54;;;;;;;;;;;;;;;30.41;22.82;100605.75;2091374;28;942;-56
2022/05/02 15:36:44;;;;;;;;;;;;;;;30.43;23.20;100603.75;2073761;28;613;-56
2022/05/02 15:37:44;;;;;;;;;;;;;;;30.51;22.98;100593.09;2073491;28;795;-56
2022/05/02 15:38:49;;;;;;;;;;;;;;;30.52;22.80;100599.41;2073729;28;1009;-56
2022/05/02 15:39:49;;;;;;;;;;;;;;;30.29;23.01;100588.47;2073611;28;1009;-56
2022/05/02 15:40:49;;;;;;;;;;;;;;;30.34;23.10;100579.91;2073652;28;993;-56
2022/05/02 15:41:49;;;;;;;;;;;;;;;30.34;22.92;100586.22;2073597;28;824;-56
2022/05/02 15:43:08;;;;;;;;;;;;;;;30.39;23.27;100584.00;2073613;28;1895;-56
2022/05/02 15:44:23;;;;;;;;;;;;;;;30.44;22.79;100587.22;2073665;28;1013;-56
2022/05/02 15:45:29;;;;;;;;;;;;;;;30.27;22.98;100585.84;2073792;28;969;-56
2022/05/02 15:46:39;;;;;;;;;;;;;;;30.36;23.32;100588.84;2073627;28;953;-56
2022/05/02 15:47:39;;;;;;;;;;;;;;;30.34;23.08;100583.50;2073738;28;898;-56
2022/05/02 15:48:39;;;;;;;;;;;;;;;30.40;22.90;100585.72;2073682;28;908;-56
2022/05/02 15:49:50;;;;;;;;;;;;;;;30.36;22.95;100583.38;2073687;28;736;-56
2022/05/02 15:50:50;;;;;;;;;;;;;;;30.24;22.60;100577.91;2073668;28;852;-56
2022/05/02 15:52:11;;;;;;;;;;;;;;;30.28;22.56;100579.41;2073608;28;886;-56
2022/05/02 15:53:20;;;;;;;;;;;;;;;30.28;23.31;100584.00;2073424;28;1407;-56
2022/05/02 15:54:23;;;;;;;;;;;;;;;30.26;22.91;100573.19;2073591;28;978;-56
2022/05/02 15:55:42;;;;;;;;;;;;;;;30.45;22.77;100569.00;2073660;28;900;-56
2022/05/02 15:57:02;;;;;;;;;;;;;;;30.38;22.85;100579.53;2073734;28;989;-56
2022/05/02 15:58:02;;;;;;;;;;;;;;;30.52;23.11;100578.44;2073356;28;1534;-56
2022/05/02 15:59:16;;;;;;;;;;;;;;;30.43;23.15;100573.72;2073678;28;783;-56
2022/05/02 16:00:26;;;;;;;;;;;;;;;30.37;22.70;100575.06;2073598;28;835;-56
2022/05/02 16:01:54;;;;;;;;;;;;;;;30.40;22.85;100587.63;2073717;28;957;-56
2022/05/02 16:03:03;;;;;;;;;;;;;;;30.53;22.98;100576.56;2073426;28;1914;-56
2022/05/02 16:04:10;;;;;;;;;;;;;;;30.58;22.49;100575.25;2073591;28;830;-56
2022/05/02 16:05:15;;;;;;;;;;;;;;;30.43;22.90;100584.63;2065508;28;819;-53
2022/05/02 16:06:20;;;;;;;;;;;;;;;30.46;22.35;100581.66;2065806;28;740;-54
2022/05/02 16:10:31;;;;;;;;;;;;;;;30.44;22.74;100586.38;2073433;28;1109;-56
2022/05/02 16:11:35;;;;;;;;;;;;;;;30.39;22.60;100583.13;2073538;28;1128;-56
2022/05/02 16:12:35;;;;;;;;;;;;;;;30.38;22.85;100570.47;2073303;28;1059;-54
2022/05/02 16:13:35;;;;;;;;;;;;;;;30.38;22.90;100585.00;2073626;28;1052;-55
2022/05/02 16:14:42;;;;;;;;;;;;;;;30.39;23.07;100583.13;2073572;28;993;-55
2022/05/02 16:15:44;;;;;;;;;;;;;;;30.43;23.39;100579.19;2073559;28;1036;-54
2022/05/02 16:16:48;;;;;;;;;;;;;;;30.35;23.11;100573.44;2073631;28;799;-54
2022/05/02 16:17:49;;;;;;;;;;;;;;;30.41;23.33;100568.34;2073528;28;902;-54
2022/05/02 16:18:51;;;;;;;;;;;;;;;30.39;23.08;100577.69;2073600;28;751;-54
2022/05/02 16:19:51;;;;;;;;;;;;;;;30.39;22.88;100572.22;2073528;28;891;-54
2022/05/02 16:20:51;;;;;;;;;;;;;;;30.46;22.89;100565.25;2073524;28;889;-54
2022/05/02 16:21:52;;;;;;;;;;;;;;;30.44;22.80;100572.72;2073647;28;883;-54
2022/05/02 16:22:52;;;;;;;;;;;;;;;30.47;23.12;100570.59;2073428;28;1963;-56
2022/05/02 16:23:59;;;;;;;;;;;;;;;30.43;23.13;100568.25;2073449;28;847;-55
2022/05/02 16:25:00;;;;;;;;;;;;;;;30.47;23.25;100569.75;2073584;28;884;-54
2022/05/02 16:26:00;;;;;;;;;;;;;;;30.52;23.01;100572.97;2073457;28;818;-57
2022/05/02 16:27:02;;;;;;;;;;;;;;;30.59;22.90;100574.25;2073551;28;1028;-57
2022/05/02 16:28:13;;;;;;;;;;;;;;;30.59;23.13;100576.09;2073461;28;885;-54
2022/05/02 16:29:15;;;;;;;;;;;;;;;30.47;22.98;100576.06;2073527;28;787;-54
2022/05/02 16:30:16;;;;;;;;;;;;;;;30.59;23.02;100568.78;2073446;28;819;-54
2022/05/02 16:31:17;;;;;;;;;;;;;;;30.55;22.90;100575.47;2073622;28;815;-54
2022/05/02 16:32:17;;;;;;;;;;;;;;;30.58;22.77;100571.63;2073471;28;831;-54
2022/05/02 16:33:18;;;;;;;;;;;;;;;30.51;23.05;100575.81;2073491;28;913;-56
2022/05/02 16:34:20;;;;;;;;;;;;;;;30.55;23.04;100578.19;2073389;28;779;-57
2022/05/02 16:35:23;;;;;;;;;;;;;;;30.41;23.07;100581.16;2073578;28;842;-56
2022/05/02 16:36:24;;;;;;;;;;;;;;;30.56;23.06;100573.59;2073439;28;879;-54
2022/05/02 16:37:32;;;;;;;;;;;;;;;30.51;22.62;100573.97;2073413;28;1220;-54
2022/05/02 16:38:32;;;;;;;;;;;;;;;30.39;23.13;100575.78;2073423;28;878;-54
2022/05/02 16:39:33;;;;;;;;;;;;;;;30.50;23.04;100569.50;2073581;28;826;-54
2022/05/02 16:40:36;;;;;;;;;;;;;;;30.64;22.76;100575.72;2073371;28;940;-56
2022/05/02 16:41:37;;;;;;;;;;;;;;;30.54;22.77;100571.00;2073468;28;870;-57
2022/05/02 16:42:38;;;;;;;;;;;;;;;30.43;22.94;100571.81;2073472;28;1898;-57
2022/05/02 16:43:41;;;;;;;;;;;;;;;30.53;22.91;100568.38;2073479;28;787;-54
2022/05/02 16:44:43;;;;;;;;;;;;;;;30.55;23.02;100574.56;2073490;28;982;-54
2022/05/02 16:45:49;;;;;;;;;;;;;;;30.50;22.58;100568.59;2073416;28;934;-54
2022/05/02 16:46:49;;;;;;;;;;;;;;;30.62;22.87;100570.38;2080779;28;1004;-54
2022/05/02 16:47:50;;;;;;;;;;;;;;;30.52;22.47;100567.50;2082615;28;993;-54
2022/05/02 16:48:52;;;;;;;;;;;;;;;30.38;23.01;100554.06;2082614;28;795;-54
2022/05/02 16:49:52;;;;;;;;;;;;;;;30.43;22.84;100568.25;2083395;28;807;-55
2022/05/02 16:50:52;;;;;;;;;;;;;;;30.50;22.62;100564.03;2084170;28;855;-54
2022/05/02 16:51:54;;;;;;;;;;;;;;;30.41;23.45;100572.97;2084072;28;996;-55
2022/05/02 16:52:55;;;;;;;;;;;;;;;30.52;22.94;100566.63;2084163;28;865;-54
2022/05/02 16:53:56;;;;;;;;;;;;;;;30.46;22.62;100566.13;2084022;28;1891;-54
2022/05/02 16:54:57;;;;;;;;;;;;;;;30.42;22.82;100567.34;2084280;28;997;-56
2022/05/02 16:56:00;;;;;;;;;;;;;;;30.44;22.56;100568.09;2084217;28;660;-57
2022/05/02 16:57:00;;;;;;;;;;;;;;;30.34;22.93;100574.44;2084257;28;1016;-54
2022/05/02 16:58:04;;;;;;;;;;;;;;;30.34;23.42;100578.03;2084069;28;988;-54
2022/05/02 16:59:06;;;;;;;;;;;;;;;30.50;22.70;100564.03;2084093;28;772;-54
2022/05/02 17:00:14;;;;;;;;;;;;;;;30.32;23.35;100572.69;2083998;28;823;-54
2022/05/02 17:01:15;;;;;;;;;;;;;;;30.44;23.03;100564.53;2084149;28;873;-54
2022/05/02 17:02:15;;;;;;;;;;;;;;;30.39;22.38;100572.22;2084198;28;707;-54
2022/05/02 17:03:16;;;;;;;;;;;;;;;30.43;22.93;100568.25;2083903;28;1968;-54
2022/05/02 17:04:19;;;;;;;;;;;;;;;30.44;22.65;100575.44;2083928;28;996;-54
2022/05/02 17:05:19;;;;;;;;;;;;;;;30.55;23.09;100571.84;2084106;28;890;-54
2022/05/02 17:06:20;;;;;;;;;;;;;;;30.61;22.70;100564.06;2088266;28;1079;-54
2022/05/02 17:07:20;;;;;;;;;;;;;;;30.55;22.61;100569.13;2092331;28;889;-55
2022/05/02 17:08:21;;;;;;;;;;;;;;;30.59;23.09;100570.63;2092277;28;1020;-54
2022/05/02 17:09:22;;;;;;;;;;;;;;;30.61;22.90;100563.19;2092308;28;771;-54
2022/05/02 17:10:23;;;;;;;;;;;;;;;30.58;22.95;100568.91;2092201;28;831;-54
2022/05/02 17:11:24;;;;;;;;;;;;;;;30.50;22.97;100572.22;2092344;28;1043;-54
2022/05/02 17:12:26;;;;;;;;;;;;;;;30.49;23.14;100561.41;2092224;28;849;-56
2022/05/02 17:13:27;;;;;;;;;;;;;;;30.44;23.14;100568.09;2092410;28;902;-57
2022/05/02 17:14:27;;;;;;;;;;;;;;;30.47;22.62;100561.53;2092055;28;1855;-54
2022/05/02 17:15:28;;;;;;;;;;;;;;;30.53;22.73;100569.25;2092386;28;1048;-54
2022/05/02 17:16:28;;;;;;;;;;;;;;;30.48;22.89;100563.28;2092136;28;807;-54
2022/05/02 17:17:34;;;;;;;;;;;;;;;30.63;23.00;100563.03;2092258;28;807;-54
2022/05/02 17:18:36;;;;;;;;;;;;;;;30.62;22.84;100562.19;2092186;28;798;-54
2022/05/02 17:19:38;;;;;;;;;;;;;;;30.53;22.84;100558.31;2092455;28;815;-54
2022/05/02 17:20:39;;;;;;;;;;;;;;;30.41;23.15;100560.16;2092396;28;799;-54
2022/05/02 17:21:47;;;;;;;;;;;;;;;30.51;23.13;100564.88;2092127;28;775;-54
2022/05/02 17:22:49;;;;;;;;;;;;;;;30.70;22.51;100567.03;2092193;28;1898;-54
2022/05/02 17:23:53;;;;;;;;;;;;;;;30.62;22.60;100559.47;2092180;28;1028;-56
2022/05/02 17:24:58;;;;;;;;;;;;;;;30.56;22.74;100560.81;2092185;28;973;-54
2022/05/02 17:26:02;;;;;;;;;;;;;;;30.61;22.42;100558.59;2092135;28;846;-54
2022/05/02 17:27:04;;;;;;;;;;;;;;;30.67;22.88;100559.06;2092149;28;874;-54
2022/05/02 17:28:08;;;;;;;;;;;;;;;30.63;22.42;100563.03;2092076;28;938;-54
2022/05/02 17:29:10;;;;;;;;;;;;;;;30.65;22.62;100555.59;2092280;28;815;-55
2022/05/02 17:30:11;;;;;;;;;;;;;;;30.72;22.50;100563.19;2092059;28;885;-54
2022/05/02 17:31:13;;;;;;;;;;;;;;;30.78;22.52;100561.81;2092037;28;1145;-54
2022/05/02 17:32:14;;;;;;;;;;;;;;;30.71;22.60;100564.19;2092171;28;893;-54
2022/05/02 17:33:15;;;;;;;;;;;;;;;30.73;22.70;100564.03;2092088;28;932;-55
2022/05/02 17:34:18;;;;;;;;;;;;;;;30.63;22.32;100563.94;2091974;28;973;-54
2022/05/02 17:35:25;;;;;;;;;;;;;;;30.61;22.77;100558.59;2092177;28;941;-54
2022/05/02 17:36:26;;;;;;;;;;;;;;;30.57;22.72;100562.56;2091986;28;870;-54
2022/05/02 17:37:26;;;;;;;;;;;;;;;30.56;22.73;100568.13;2092107;28;842;-57
2022/05/02 17:38:29;;;;;;;;;;;;;;;30.46;23.09;100565.25;2092036;28;846;-54
2022/05/02 17:39:30;;;;;;;;;;;;;;;30.59;22.38;100574.25;2092030;28;985;-54
2022/05/02 17:40:36;;;;;;;;;;;;;;;30.55;22.54;100570.00;2092064;28;800;-54
2022/05/02 17:41:36;;;;;;;;;;;;;;;30.55;22.83;100575.47;2092004;28;810;-56
2022/05/02 17:42:36;;;;;;;;;;;;;;;30.68;22.56;100571.75;2091862;28;1894;-54
2022/05/02 17:43:44;;;;;;;;;;;;;;;30.71;22.37;100572.38;2092016;28;870;-54
2022/05/02 17:44:50;;;;;;;;;;;;;;;30.70;22.29;100570.66;2092050;28;894;-54
2022/05/02 17:45:51;;;;;;;;;;;;;;;30.74;22.50;100571.25;2091980;28;1036;-54
2022/05/02 17:46:55;;;;;;;;;;;;;;;30.72;22.55;100575.97;2092049;28;782;-54
2022/05/02 17:47:55;;;;;;;;;;;;;;;30.62;22.16;100575.84;2091907;28;939;-54
2022/05/02 17:48:56;;;;;;;;;;;;;;;30.65;22.62;100577.47;2091997;28;1028;-54
2022/05/02 17:49:58;;;;;;;;;;;;;;;30.58;22.84;100577.97;2091928;28;850;-54
2022/05/02 17:51:08;;;;;;;;;;;;;;;30.63;22.77;100574.88;2092122;28;744;-54
2022/05/02 17:52:13;;;;;;;;;;;;;;;30.58;22.42;100579.81;2091955;28;1036;-54
2022/05/02 17:53:17;;;;;;;;;;;;;;;30.56;22.98;100571.75;2092009;28;1001;-54
2022/05/02 17:54:18;;;;;;;;;;;;;;;30.71;22.41;100576.97;2091913;28;786;-54
2022/05/02 17:55:18;;;;;;;;;;;;;;;30.68;22.24;100572.63;2091964;28;1056;-54
2022/05/02 17:56:19;;;;;;;;;;;;;;;30.64;22.62;100575.72;2091900;28;779;-54
2022/05/02 17:57:21;;;;;;;;;;;;;;;30.54;22.73;100576.47;2091935;28;965;-54